Middleburg, Ohio
Current Conditions -  °F | °C
As of 9:33 AM on Sunday 25 Jan 2015 (Local Time) from KMRT Reporting Station
Overcast Overcast  
Wind Chill: 33°   Ceiling: 5500
Heat Index: 33°   Visibility: 4mi
Dew Point: 30°   Wind: 0mph
Humidity: 90%   Direction: NA
Pressure: 29.77"   Gusts: NA
Location:  40.29°N, 83.58°W
Report Text: KMRT 251433Z AUTO 00000KT 4SM BKN055 OVC100 00/M01 A2977 RMK AO2 T00031012
Loading
Personal Weather Stations






























Interactive Weather Map New forecast layout! Learn more

10-Day Weather Forecast

Advertisements
Track Severe Weather on mobile